Time;durP1;ratioP1;P1;durP2;ratioP2;P2;SDS_P1;SDS_P2;PMS_P1;PMS_P2;Temp;Humidity;BMP_temperature;BMP_pressure;BME280_temperature;BME280_humidity;BME280_pressure;Samples;Min_cycle;Max_cycle;Signal;HPM_P1;HPM_P2
2024/03/09 08:30:57;;;;;;;10.20;6.57;;;;;;;;;;5220663;23;20073;-94
2024/03/09 08:33:22;;;;;;;7.38;5.50;;;;;;;;;;4960672;28;20038;-95
2024/03/09 08:35:48;;;;;;;6.40;5.18;;;;;;;;;;4960264;28;20027;-91
2024/03/09 14:17:31;;;;;;;4.45;3.65;;;;;;;;;;5008090;23;20057;-92
2024/03/09 14:20:03;;;;;;;5.78;4.25;;;;;;;;;;5112609;23;20118;-92
2024/03/09 14:22:30;;;;;;;6.05;4.70;;;;;;;;;;4984007;28;20030;-93
2024/03/09 14:24:58;;;;;;;5.43;4.10;;;;;;;;;;4986767;28;20023;-95
2024/03/09 14:27:33;;;;;;;4.43;3.75;;;;;;;;;;4998204;28;20033;-96
2024/03/09 14:30:07;;;;;;;5.57;4.13;;;;;;;;;;4997590;28;20029;-96
2024/03/09 14:32:39;;;;;;;5.10;3.25;;;;;;;;;;4979134;28;20143;-96
2024/03/09 14:35:17;;;;;;;3.45;3.10;;;;;;;;;;4978781;28;20042;-96
2024/03/09 14:37:43;;;;;;;4.60;3.88;;;;;;;;;;4996665;28;20070;-96
2024/03/09 14:40:16;;;;;;;5.63;3.90;;;;;;;;;;4998296;28;20516;-96
2024/03/09 14:42:55;;;;;;;4.90;3.83;;;;;;;;;;4983450;28;20038;-96
2024/03/09 14:45:24;;;;;;;5.05;3.47;;;;;;;;;;4984117;28;20034;-96
2024/03/09 14:47:57;;;;;;;5.38;3.60;;;;;;;;;;4987085;28;20106;-96
2024/03/09 14:50:25;;;;;;;5.63;3.28;;;;;;;;;;4972056;28;20039;-96
2024/03/09 14:52:55;;;;;;;4.70;3.40;;;;;;;;;;4989571;28;20066;-96
2024/03/09 14:55:31;;;;;;;3.92;3.13;;;;;;;;;;4988916;28;20035;-96
2024/03/09 14:58:01;;;;;;;4.75;3.53;;;;;;;;;;4988369;28;20130;-96
2024/03/09 15:03:12;;;;;;;5.80;4.33;;;;;;;;;;4999570;28;19922;-96
2024/03/09 15:05:38;;;;;;;5.13;4.60;;;;;;;;;;4980732;28;20047;-93
2024/03/09 15:08:09;;;;;;;7.95;4.50;;;;;;;;;;4984513;28;20170;-92
2024/03/09 15:10:47;;;;;;;6.82;5.60;;;;;;;;;;4994055;28;20021;-93
2024/03/09 15:13:12;;;;;;;6.38;4.82;;;;;;;;;;4974241;28;20024;-93
2024/03/09 15:15:43;;;;;;;4.95;3.97;;;;;;;;;;4977497;28;20117;-93
2024/03/09 15:18:11;;;;;;;5.22;3.60;;;;;;;;;;4992908;28;20385;-93
2024/03/09 15:20:44;;;;;;;4.25;3.70;;;;;;;;;;4977651;28;20043;-93
2024/03/09 15:23:10;;;;;;;5.03;3.67;;;;;;;;;;4962761;28;20033;-94
2024/03/09 15:25:40;;;;;;;5.00;3.67;;;;;;;;;;4977958;28;20026;-94
2024/03/09 15:28:07;;;;;;;3.92;3.42;;;;;;;;;;4994046;28;20473;-94
2024/03/09 15:30:32;;;;;;;4.28;3.80;;;;;;;;;;4994116;28;20034;-93
2024/03/09 15:32:59;;;;;;;6.63;4.35;;;;;;;;;;4960869;28;20041;-93
2024/03/09 15:35:25;;;;;;;7.88;5.50;;;;;;;;;;4993789;28;20038;-93
2024/03/09 15:37:51;;;;;;;4.10;3.70;;;;;;;;;;4994054;28;20377;-92
2024/03/09 15:40:23;;;;;;;4.30;3.58;;;;;;;;;;4983991;28;20023;-94
2024/03/09 15:42:50;;;;;;;5.13;3.88;;;;;;;;;;4969267;28;20035;-91
2024/03/09 15:45:34;;;;;;;6.32;4.57;;;;;;;;;;4995686;28;20030;-96
2024/03/09 15:48:09;;;;;;;5.95;4.25;;;;;;;;;;4990985;28;20030;-96
2024/03/09 15:50:42;;;;;;;4.00;3.60;;;;;;;;;;5004379;28;20031;-96
2024/03/09 15:53:15;;;;;;;3.65;3.08;;;;;;;;;;4994121;28;20042;-95
2024/03/09 15:55:44;;;;;;;3.55;3.10;;;;;;;;;;4977602;28;20024;-96
2024/03/09 15:58:09;;;;;;;6.80;4.03;;;;;;;;;;4995401;28;20560;-95
2024/03/09 16:00:41;;;;;;;4.22;3.83;;;;;;;;;;4978830;28;20031;-93
2024/03/09 16:03:09;;;;;;;4.10;3.30;;;;;;;;;;4995690;28;20042;-94
2024/03/09 16:05:36;;;;;;;3.88;3.47;;;;;;;;;;4995477;28;20031;-94
2024/03/09 18:09:37;;;;;;;6.07;3.22;;;;;;;;;;5364434;23;20057;-93
2024/03/09 19:40:22;;;;;;;5.93;4.80;;;;;;;;;;6249393;22;884132;-94
2024/03/09 19:42:50;;;;;;;3.38;3.08;;;;;;;;;;6197284;22;1486603;-94
2024/03/09 19:45:17;;;;;;;9.98;7.30;;;;;;;;;;6257909;23;20012;-91
2024/03/09 19:47:47;;;;;;;5.00;4.32;;;;;;;;;;6238908;23;20004;-93
2024/03/09 19:50:12;;;;;;;4.97;3.72;;;;;;;;;;6225981;23;20335;-93
2024/03/09 19:52:39;;;;;;;4.07;3.22;;;;;;;;;;6227201;23;20092;-94
2024/03/09 19:55:10;;;;;;;2.83;2.50;;;;;;;;;;6200859;23;20075;-91
2024/03/09 19:57:40;;;;;;;2.83;2.28;;;;;;;;;;6219433;23;20324;-92
2024/03/09 20:00:11;;;;;;;3.13;2.70;;;;;;;;;;6219411;23;20087;-92
2024/03/09 20:02:40;;;;;;;2.85;2.45;;;;;;;;;;6218664;23;20431;-93
2024/03/09 20:05:10;;;;;;;5.72;3.90;;;;;;;;;;6219133;23;20019;-93
2024/03/09 20:07:41;;;;;;;13.45;8.07;;;;;;;;;;6224751;23;20004;-90
2024/03/09 20:10:14;;;;;;;17.27;9.73;;;;;;;;;;6200243;23;20011;-91
2024/03/09 20:12:43;;;;;;;18.38;8.52;;;;;;;;;;6220738;23;20344;-91
2024/03/09 20:15:13;;;;;;;8.65;4.53;;;;;;;;;;6224018;23;20008;-94
2024/03/09 20:17:40;;;;;;;4.32;3.38;;;;;;;;;;6223849;23;20008;-90
2024/03/09 20:20:16;;;;;;;4.32;3.13;;;;;;;;;;6248006;22;20080;-90
2024/03/09 20:22:41;;;;;;;25.85;11.07;;;;;;;;;;6261367;23;20016;-91
2024/03/09 20:25:12;;;;;;;8.10;4.72;;;;;;;;;;6266643;23;20072;-90
2024/03/09 20:27:43;;;;;;;3.83;3.28;;;;;;;;;;6237081;23;20005;-91
2024/03/09 20:30:16;;;;;;;5.28;3.40;;;;;;;;;;6260307;23;20001;-91
2024/03/09 20:32:43;;;;;;;5.05;3.60;;;;;;;;;;6239914;23;20011;-90
2024/03/09 20:35:15;;;;;;;4.82;3.95;;;;;;;;;;6257963;23;20070;-93
2024/03/09 20:37:42;;;;;;;5.85;4.97;;;;;;;;;;6264574;23;20069;-91
2024/03/09 20:40:16;;;;;;;6.55;3.97;;;;;;;;;;6223713;23;20116;-91
2024/03/09 20:45:19;;;;;;;7.05;4.00;;;;;;;;;;6208739;23;20070;-88
2024/03/09 20:47:52;;;;;;;6.18;4.10;;;;;;;;;;6254540;23;20326;-90
2024/03/09 20:50:22;;;;;;;7.55;4.47;;;;;;;;;;6258898;23;20004;-89
2024/03/09 20:53:00;;;;;;;10.65;6.57;;;;;;;;;;6260973;23;20031;-91
2024/03/09 20:55:34;;;;;;;6.10;5.00;;;;;;;;;;6239056;23;20031;-89
2024/03/09 20:58:04;;;;;;;5.82;4.30;;;;;;;;;;6271314;22;20032;-91
2024/03/09 21:00:56;;;;;;;4.70;3.50;;;;;;;;;;6249305;23;20031;-90
2024/03/09 21:03:23;;;;;;;4.45;3.80;;;;;;;;;;6214319;23;20046;-90
2024/03/09 21:06:22;;;;;;;5.88;4.38;;;;;;;;;;6241358;23;20015;-90
2024/03/09 21:09:33;;;;;;;4.83;4.17;;;;;;;;;;6217991;23;20016;-90
2024/03/09 21:12:12;;;;;;;5.55;4.60;;;;;;;;;;6234120;23;20012;-90
2024/03/09 21:15:11;;;;;;;6.95;4.07;;;;;;;;;;6234821;23;20000;-90
2024/03/09 21:17:53;;;;;;;5.00;3.13;;;;;;;;;;6260542;23;20095;-90
2024/03/09 21:20:58;;;;;;;;;;;;;;;;;;;;;
2024/03/09 21:28:13;;;;;;;2.90;2.25;;;;;;;;;;6225605;23;20035;-89
2024/03/09 21:36:02;;;;;;;5.80;4.90;;;;;;;;;;6223858;23;20066;-92
2024/03/09 21:38:30;;;;;;;4.72;3.88;;;;;;;;;;6199180;23;20015;-92
2024/03/09 21:40:57;;;;;;;5.85;4.25;;;;;;;;;;6195783;23;20008;-89
2024/03/09 21:43:23;;;;;;;6.38;5.63;;;;;;;;;;6194948;23;20009;-90
2024/03/09 21:45:49;;;;;;;6.85;5.32;;;;;;;;;;6192684;23;20131;-90
2024/03/09 21:48:17;;;;;;;7.18;5.47;;;;;;;;;;6245921;23;20009;-90
2024/03/09 21:53:28;;;;;;;9.43;5.95;;;;;;;;;;6299224;22;20006;-90
2024/03/09 21:55:58;;;;;;;8.57;5.95;;;;;;;;;;6224079;22;20027;-90
2024/03/09 21:58:24;;;;;;;7.20;5.85;;;;;;;;;;6262053;22;20027;-90
2024/03/09 22:00:50;;;;;;;8.75;6.95;;;;;;;;;;6261133;22;20003;-92
2024/03/09 22:03:18;;;;;;;7.85;7.03;;;;;;;;;;6259941;22;20004;-92
2024/03/09 22:05:51;;;;;;;9.27;7.30;;;;;;;;;;6293382;22;20014;-89
2024/03/09 22:08:20;;;;;;;10.10;8.05;;;;;;;;;;6291017;22;20037;-91
2024/03/09 22:10:46;;;;;;;10.40;6.75;;;;;;;;;;6289131;22;20330;-90
2024/03/09 22:13:13;;;;;;;8.85;6.75;;;;;;;;;;6281396;22;20429;-90
2024/03/09 22:15:39;;;;;;;9.48;7.93;;;;;;;;;;6229577;22;20012;-89
2024/03/09 22:18:08;;;;;;;12.20;8.05;;;;;;;;;;6258376;22;20120;-91
2024/03/09 22:20:34;;;;;;;10.60;7.63;;;;;;;;;;6255580;22;20010;-91
2024/03/09 22:22:59;;;;;;;10.05;7.32;;;;;;;;;;6231841;22;20011;-91
2024/03/09 22:25:31;;;;;;;11.02;8.00;;;;;;;;;;6258009;22;20011;-91
2024/03/09 22:27:58;;;;;;;9.70;6.72;;;;;;;;;;6259983;22;20008;-92
2024/03/09 22:30:24;;;;;;;9.10;6.93;;;;;;;;;;6234143;22;20000;-91
2024/03/09 22:32:52;;;;;;;9.68;6.65;;;;;;;;;;6260542;22;20012;-90
2024/03/09 22:35:22;;;;;;;9.20;6.68;;;;;;;;;;6263458;22;20000;-91
2024/03/09 22:38:09;;;;;;;9.70;6.38;;;;;;;;;;6266254;22;20489;-92
2024/03/09 22:40:40;;;;;;;9.63;7.13;;;;;;;;;;6290760;22;20030;-90
2024/03/09 22:43:11;;;;;;;8.45;5.95;;;;;;;;;;6264584;22;20052;-92
2024/03/09 22:45:38;;;;;;;6.70;5.30;;;;;;;;;;6264798;22;20057;-91
2024/03/09 22:48:06;;;;;;;7.80;5.50;;;;;;;;;;6208632;23;20073;-90
2024/03/09 22:50:32;;;;;;;5.15;4.57;;;;;;;;;;6204538;23;20096;-91
2024/03/09 22:52:57;;;;;;;6.05;4.72;;;;;;;;;;6177379;23;20005;-91
2024/03/09 22:55:24;;;;;;;7.90;5.25;;;;;;;;;;6227614;23;19997;-91
2024/03/09 22:57:51;;;;;;;6.90;4.97;;;;;;;;;;6198040;23;20004;-90
2024/03/09 23:02:53;;;;;;;7.88;5.60;;;;;;;;;;6235739;23;20071;-90
2024/03/09 23:05:19;;;;;;;6.03;4.65;;;;;;;;;;6199418;23;20013;-90
2024/03/09 23:07:57;;;;;;;5.53;4.25;;;;;;;;;;6174591;23;20067;-91
2024/03/09 23:10:24;;;;;;;10.32;7.70;;;;;;;;;;6197674;23;20013;-91
2024/03/09 23:12:51;;;;;;;10.68;7.70;;;;;;;;;;6223331;23;20012;-93
2024/03/09 23:15:20;;;;;;;6.97;6.10;;;;;;;;;;6191806;23;20061;-92
2024/03/09 23:17:48;;;;;;;8.60;5.95;;;;;;;;;;6167880;23;20016;-89
2024/03/09 23:20:16;;;;;;;7.93;6.38;;;;;;;;;;6191850;23;20029;-92
2024/03/09 23:22:46;;;;;;;9.88;7.72;;;;;;;;;;6194230;23;20008;-92
2024/03/09 23:25:24;;;;;;;8.60;6.75;;;;;;;;;;6196031;23;20009;-92
2024/03/09 23:27:53;;;;;;;7.88;6.97;;;;;;;;;;6194130;23;20163;-92
2024/03/09 23:30:21;;;;;;;9.73;6.60;;;;;;;;;;6192686;23;20367;-91
2024/03/09 23:32:48;;;;;;;9.50;6.80;;;;;;;;;;6196077;23;20337;-92
2024/03/09 23:35:19;;;;;;;9.27;7.28;;;;;;;;;;6193410;23;20004;-92
2024/03/09 23:37:48;;;;;;;8.30;6.72;;;;;;;;;;6195416;23;20376;-95
2024/03/09 23:45:27;;;;;;;7.18;5.88;;;;;;;;;;6218062;22;20026;-90
